sensor_id;sensor_type;location;lat;lon;timestamp;P1;durP1;ratioP1;P2;durP2;ratioP2
13651;SDS011;6899;51.546;6.912;2023-04-01T00:03:30;10.75;;;4.93;;
13651;SDS011;6899;51.546;6.912;2023-04-01T00:05:58;7.55;;;4.80;;
13651;SDS011;6899;51.546;6.912;2023-04-01T00:08:31;10.02;;;5.82;;
13651;SDS011;6899;51.546;6.912;2023-04-01T00:10:58;13.23;;;5.97;;
13651;SDS011;6899;51.546;6.912;2023-04-01T00:13:25;18.33;;;5.60;;
13651;SDS011;6899;51.546;6.912;2023-04-01T00:15:53;9.93;;;5.63;;
13651;SDS011;6899;51.546;6.912;2023-04-01T00:18:23;12.52;;;5.65;;
13651;SDS011;6899;51.546;6.912;2023-04-01T00:20:53;8.80;;;5.07;;
13651;SDS011;6899;51.546;6.912;2023-04-01T00:23:20;10.60;;;5.47;;
13651;SDS011;6899;51.546;6.912;2023-04-01T00:25:47;13.60;;;5.65;;
13651;SDS011;6899;51.546;6.912;2023-04-01T00:28:15;13.57;;;6.28;;
13651;SDS011;6899;51.546;6.912;2023-04-01T00:30:42;7.15;;;4.65;;
13651;SDS011;6899;51.546;6.912;2023-04-01T00:33:09;13.00;;;5.35;;
13651;SDS011;6899;51.546;6.912;2023-04-01T00:35:36;13.23;;;5.03;;
13651;SDS011;6899;51.546;6.912;2023-04-01T00:38:04;9.52;;;4.53;;
13651;SDS011;6899;51.546;6.912;2023-04-01T00:40:32;13.60;;;4.30;;
13651;SDS011;6899;51.546;6.912;2023-04-01T00:43:01;3.78;;;2.95;;
13651;SDS011;6899;51.546;6.912;2023-04-01T00:45:31;9.05;;;3.80;;
13651;SDS011;6899;51.546;6.912;2023-04-01T00:48:02;6.28;;;3.28;;
13651;SDS011;6899;51.546;6.912;2023-04-01T00:50:33;9.07;;;4.22;;
13651;SDS011;6899;51.546;6.912;2023-04-01T00:53:02;7.72;;;4.45;;
13651;SDS011;6899;51.546;6.912;2023-04-01T00:55:39;10.48;;;6.20;;
13651;SDS011;6899;51.546;6.912;2023-04-01T00:58:11;8.07;;;5.50;;
13651;SDS011;6899;51.546;6.912;2023-04-01T01:00:42;8.32;;;5.10;;
13651;SDS011;6899;51.546;6.912;2023-04-01T01:03:11;11.20;;;5.38;;
13651;SDS011;6899;51.546;6.912;2023-04-01T01:05:46;13.68;;;6.30;;
13651;SDS011;6899;51.546;6.912;2023-04-01T01:08:30;11.93;;;6.30;;
13651;SDS011;6899;51.546;6.912;2023-04-01T01:11:06;13.30;;;7.35;;
13651;SDS011;6899;51.546;6.912;2023-04-01T01:13:38;11.60;;;6.93;;
13651;SDS011;6899;51.546;6.912;2023-04-01T01:16:12;12.75;;;7.55;;
13651;SDS011;6899;51.546;6.912;2023-04-01T01:18:47;14.30;;;7.78;;
13651;SDS011;6899;51.546;6.912;2023-04-01T01:27:19;11.90;;;6.53;;
13651;SDS011;6899;51.546;6.912;2023-04-01T01:30:07;10.88;;;6.35;;
13651;SDS011;6899;51.546;6.912;2023-04-01T01:32:58;7.18;;;5.22;;
13651;SDS011;6899;51.546;6.912;2023-04-01T01:35:44;8.95;;;5.10;;
13651;SDS011;6899;51.546;6.912;2023-04-01T01:38:15;10.73;;;5.82;;
13651;SDS011;6899;51.546;6.912;2023-04-01T01:40:48;12.63;;;7.07;;
13651;SDS011;6899;51.546;6.912;2023-04-01T01:43:19;12.07;;;6.90;;
13651;SDS011;6899;51.546;6.912;2023-04-01T01:45:57;8.38;;;5.03;;
13651;SDS011;6899;51.546;6.912;2023-04-01T01:48:27;7.25;;;4.88;;
13651;SDS011;6899;51.546;6.912;2023-04-01T01:50:57;8.40;;;5.05;;
13651;SDS011;6899;51.546;6.912;2023-04-01T01:53:25;9.45;;;4.55;;
13651;SDS011;6899;51.546;6.912;2023-04-01T01:55:52;12.40;;;5.07;;
13651;SDS011;6899;51.546;6.912;2023-04-01T01:58:20;8.05;;;5.55;;
13651;SDS011;6899;51.546;6.912;2023-04-01T02:00:51;9.55;;;5.28;;
13651;SDS011;6899;51.546;6.912;2023-04-01T02:03:24;8.45;;;4.40;;
13651;SDS011;6899;51.546;6.912;2023-04-01T02:05:53;7.00;;;5.00;;
13651;SDS011;6899;51.546;6.912;2023-04-01T02:08:24;8.52;;;5.07;;
13651;SDS011;6899;51.546;6.912;2023-04-01T02:10:55;10.05;;;4.80;;
13651;SDS011;6899;51.546;6.912;2023-04-01T02:13:27;8.40;;;4.57;;
13651;SDS011;6899;51.546;6.912;2023-04-01T02:16:02;8.73;;;4.78;;
13651;SDS011;6899;51.546;6.912;2023-04-01T02:18:35;5.80;;;3.55;;
13651;SDS011;6899;51.546;6.912;2023-04-01T02:21:04;10.20;;;4.75;;
13651;SDS011;6899;51.546;6.912;2023-04-01T02:23:35;6.22;;;4.47;;
13651;SDS011;6899;51.546;6.912;2023-04-01T02:26:04;8.63;;;4.47;;
13651;SDS011;6899;51.546;6.912;2023-04-01T02:28:34;8.02;;;4.40;;
13651;SDS011;6899;51.546;6.912;2023-04-01T02:31:06;7.88;;;4.38;;
13651;SDS011;6899;51.546;6.912;2023-04-01T02:33:35;7.78;;;4.40;;
13651;SDS011;6899;51.546;6.912;2023-04-01T02:36:04;8.35;;;4.50;;
13651;SDS011;6899;51.546;6.912;2023-04-01T02:38:31;9.32;;;3.67;;
13651;SDS011;6899;51.546;6.912;2023-04-01T02:41:09;8.73;;;3.83;;
13651;SDS011;6899;51.546;6.912;2023-04-01T02:43:36;8.73;;;3.45;;
13651;SDS011;6899;51.546;6.912;2023-04-01T02:46:03;6.45;;;3.97;;
13651;SDS011;6899;51.546;6.912;2023-04-01T02:48:30;4.80;;;3.08;;
13651;SDS011;6899;51.546;6.912;2023-04-01T02:50:57;7.07;;;3.22;;
13651;SDS011;6899;51.546;6.912;2023-04-01T02:53:24;4.63;;;3.10;;
13651;SDS011;6899;51.546;6.912;2023-04-01T02:58:30;4.75;;;2.95;;
13651;SDS011;6899;51.546;6.912;2023-04-01T03:00:57;7.32;;;3.53;;
13651;SDS011;6899;51.546;6.912;2023-04-01T03:03:26;5.57;;;3.72;;
13651;SDS011;6899;51.546;6.912;2023-04-01T03:05:52;7.18;;;3.75;;
13651;SDS011;6899;51.546;6.912;2023-04-01T03:08:20;9.77;;;3.95;;
13651;SDS011;6899;51.546;6.912;2023-04-01T03:10:47;6.03;;;3.08;;
13651;SDS011;6899;51.546;6.912;2023-04-01T03:13:14;6.82;;;3.05;;
13651;SDS011;6899;51.546;6.912;2023-04-01T03:15:42;6.53;;;2.90;;
13651;SDS011;6899;51.546;6.912;2023-04-01T03:18:09;4.50;;;2.78;;
13651;SDS011;6899;51.546;6.912;2023-04-01T03:20:39;5.95;;;2.70;;
13651;SDS011;6899;51.546;6.912;2023-04-01T03:23:06;4.10;;;2.55;;
13651;SDS011;6899;51.546;6.912;2023-04-01T03:25:41;5.22;;;2.58;;
13651;SDS011;6899;51.546;6.912;2023-04-01T03:28:11;4.68;;;2.85;;
13651;SDS011;6899;51.546;6.912;2023-04-01T03:30:38;5.45;;;3.53;;
13651;SDS011;6899;51.546;6.912;2023-04-01T03:33:07;6.57;;;3.78;;
13651;SDS011;6899;51.546;6.912;2023-04-01T03:35:36;6.43;;;4.03;;
13651;SDS011;6899;51.546;6.912;2023-04-01T03:38:03;6.00;;;3.28;;
13651;SDS011;6899;51.546;6.912;2023-04-01T03:40:30;4.95;;;3.78;;
13651;SDS011;6899;51.546;6.912;2023-04-01T03:42:58;5.90;;;3.90;;
13651;SDS011;6899;51.546;6.912;2023-04-01T03:45:24;6.30;;;3.47;;
13651;SDS011;6899;51.546;6.912;2023-04-01T03:47:51;5.72;;;3.35;;
13651;SDS011;6899;51.546;6.912;2023-04-01T03:50:20;5.95;;;3.47;;
13651;SDS011;6899;51.546;6.912;2023-04-01T03:52:49;4.78;;;3.35;;
13651;SDS011;6899;51.546;6.912;2023-04-01T03:55:16;6.22;;;3.97;;
13651;SDS011;6899;51.546;6.912;2023-04-01T03:57:57;5.93;;;3.70;;
13651;SDS011;6899;51.546;6.912;2023-04-01T04:00:30;8.13;;;4.43;;
13651;SDS011;6899;51.546;6.912;2023-04-01T04:02:57;8.18;;;4.10;;
13651;SDS011;6899;51.546;6.912;2023-04-01T04:05:26;8.27;;;5.13;;
13651;SDS011;6899;51.546;6.912;2023-04-01T04:07:54;11.10;;;4.97;;
13651;SDS011;6899;51.546;6.912;2023-04-01T04:10:21;8.93;;;5.35;;
13651;SDS011;6899;51.546;6.912;2023-04-01T04:12:50;8.10;;;4.55;;
13651;SDS011;6899;51.546;6.912;2023-04-01T04:15:17;8.65;;;5.55;;
13651;SDS011;6899;51.546;6.912;2023-04-01T04:17:44;12.00;;;5.05;;
13651;SDS011;6899;51.546;6.912;2023-04-01T04:20:11;10.48;;;5.25;;
13651;SDS011;6899;51.546;6.912;2023-04-01T04:22:40;10.23;;;4.80;;
13651;SDS011;6899;51.546;6.912;2023-04-01T04:25:07;7.40;;;4.88;;
13651;SDS011;6899;51.546;6.912;2023-04-01T04:27:34;11.32;;;5.43;;
13651;SDS011;6899;51.546;6.912;2023-04-01T04:30:01;10.68;;;5.07;;
13651;SDS011;6899;51.546;6.912;2023-04-01T04:32:29;9.63;;;5.47;;
13651;SDS011;6899;51.546;6.912;2023-04-01T04:34:56;9.25;;;5.60;;
13651;SDS011;6899;51.546;6.912;2023-04-01T04:37:26;10.82;;;6.43;;
13651;SDS011;6899;51.546;6.912;2023-04-01T04:39:55;12.73;;;6.93;;
13651;SDS011;6899;51.546;6.912;2023-04-01T04:42:22;14.85;;;6.85;;
13651;SDS011;6899;51.546;6.912;2023-04-01T04:44:48;12.70;;;6.63;;
13651;SDS011;6899;51.546;6.912;2023-04-01T04:47:15;15.55;;;6.47;;
13651;SDS011;6899;51.546;6.912;2023-04-01T04:49:42;8.90;;;5.72;;
13651;SDS011;6899;51.546;6.912;2023-04-01T04:52:09;12.40;;;6.20;;
13651;SDS011;6899;51.546;6.912;2023-04-01T04:54:36;9.85;;;6.22;;
13651;SDS011;6899;51.546;6.912;2023-04-01T04:57:04;12.05;;;6.00;;
13651;SDS011;6899;51.546;6.912;2023-04-01T04:59:32;8.88;;;5.80;;
13651;SDS011;6899;51.546;6.912;2023-04-01T05:01:59;10.75;;;6.00;;
13651;SDS011;6899;51.546;6.912;2023-04-01T05:04:26;7.95;;;5.00;;
13651;SDS011;6899;51.546;6.912;2023-04-01T05:06:54;7.30;;;4.90;;
13651;SDS011;6899;51.546;6.912;2023-04-01T05:09:21;8.10;;;4.90;;
13651;SDS011;6899;51.546;6.912;2023-04-01T05:11:48;8.85;;;4.70;;
13651;SDS011;6899;51.546;6.912;2023-04-01T05:14:16;6.75;;;4.75;;
13651;SDS011;6899;51.546;6.912;2023-04-01T05:16:43;6.97;;;4.80;;
13651;SDS011;6899;51.546;6.912;2023-04-01T05:19:10;7.10;;;4.82;;
13651;SDS011;6899;51.546;6.912;2023-04-01T05:21:37;6.03;;;4.82;;
13651;SDS011;6899;51.546;6.912;2023-04-01T05:24:07;6.20;;;5.05;;
13651;SDS011;6899;51.546;6.912;2023-04-01T05:26:35;6.68;;;4.50;;
13651;SDS011;6899;51.546;6.912;2023-04-01T05:29:02;7.57;;;4.72;;
13651;SDS011;6899;51.546;6.912;2023-04-01T05:31:30;7.35;;;4.80;;
13651;SDS011;6899;51.546;6.912;2023-04-01T05:34:00;7.80;;;5.00;;
13651;SDS011;6899;51.546;6.912;2023-04-01T05:36:28;5.07;;;4.05;;
13651;SDS011;6899;51.546;6.912;2023-04-01T05:39:01;6.50;;;4.30;;
13651;SDS011;6899;51.546;6.912;2023-04-01T05:41:31;7.75;;;5.05;;
13651;SDS011;6899;51.546;6.912;2023-04-01T05:43:59;8.48;;;5.35;;
13651;SDS011;6899;51.546;6.912;2023-04-01T05:46:26;7.03;;;5.13;;
13651;SDS011;6899;51.546;6.912;2023-04-01T05:49:09;7.60;;;4.75;;
13651;SDS011;6899;51.546;6.912;2023-04-01T05:51:36;7.75;;;5.63;;
13651;SDS011;6899;51.546;6.912;2023-04-01T05:54:03;9.63;;;6.00;;
13651;SDS011;6899;51.546;6.912;2023-04-01T05:56:40;9.60;;;6.45;;
13651;SDS011;6899;51.546;6.912;2023-04-01T05:59:09;9.10;;;6.10;;
13651;SDS011;6899;51.546;6.912;2023-04-01T06:01:37;10.13;;;6.22;;
13651;SDS011;6899;51.546;6.912;2023-04-01T06:04:11;8.38;;;5.93;;
13651;SDS011;6899;51.546;6.912;2023-04-01T06:06:40;9.70;;;6.45;;
13651;SDS011;6899;51.546;6.912;2023-04-01T06:09:07;9.43;;;6.78;;
13651;SDS011;6899;51.546;6.912;2023-04-01T06:11:42;8.25;;;6.10;;
13651;SDS011;6899;51.546;6.912;2023-04-01T06:14:22;10.73;;;7.05;;
13651;SDS011;6899;51.546;6.912;2023-04-01T06:17:02;9.88;;;6.88;;
13651;SDS011;6899;51.546;6.912;2023-04-01T06:19:45;9.13;;;7.15;;
13651;SDS011;6899;51.546;6.912;2023-04-01T06:22:26;8.73;;;6.65;;
13651;SDS011;6899;51.546;6.912;2023-04-01T06:25:20;10.18;;;7.40;;
13651;SDS011;6899;51.546;6.912;2023-04-01T06:27:59;10.35;;;6.88;;
13651;SDS011;6899;51.546;6.912;2023-04-01T06:31:00;10.63;;;7.72;;
13651;SDS011;6899;51.546;6.912;2023-04-01T06:33:50;10.50;;;8.07;;
13651;SDS011;6899;51.546;6.912;2023-04-01T06:45:41;11.48;;;7.43;;
13651;SDS011;6899;51.546;6.912;2023-04-01T06:48:18;12.70;;;7.80;;
13651;SDS011;6899;51.546;6.912;2023-04-01T06:51:02;9.05;;;7.32;;
13651;SDS011;6899;51.546;6.912;2023-04-01T06:53:41;8.70;;;7.07;;
13651;SDS011;6899;51.546;6.912;2023-04-01T06:56:16;9.38;;;6.88;;
13651;SDS011;6899;51.546;6.912;2023-04-01T06:58:46;13.40;;;7.53;;
13651;SDS011;6899;51.546;6.912;2023-04-01T07:01:16;11.75;;;7.70;;
13651;SDS011;6899;51.546;6.912;2023-04-01T07:03:49;10.52;;;7.93;;
13651;SDS011;6899;51.546;6.912;2023-04-01T07:06:23;12.38;;;8.57;;
13651;SDS011;6899;51.546;6.912;2023-04-01T07:09:02;10.40;;;7.82;;
13651;SDS011;6899;51.546;6.912;2023-04-01T07:11:37;11.07;;;8.00;;
13651;SDS011;6899;51.546;6.912;2023-04-01T07:14:06;9.60;;;7.32;;
13651;SDS011;6899;51.546;6.912;2023-04-01T07:16:43;9.50;;;7.45;;
13651;SDS011;6899;51.546;6.912;2023-04-01T07:19:14;9.55;;;7.43;;
13651;SDS011;6899;51.546;6.912;2023-04-01T07:22:05;11.20;;;7.50;;
13651;SDS011;6899;51.546;6.912;2023-04-01T07:24:45;8.80;;;6.70;;
13651;SDS011;6899;51.546;6.912;2023-04-01T07:27:13;11.80;;;8.27;;
13651;SDS011;6899;51.546;6.912;2023-04-01T07:29:40;11.60;;;8.75;;
13651;SDS011;6899;51.546;6.912;2023-04-01T07:32:18;11.40;;;7.93;;
13651;SDS011;6899;51.546;6.912;2023-04-01T07:35:05;10.55;;;7.65;;
13651;SDS011;6899;51.546;6.912;2023-04-01T07:40:57;10.93;;;7.97;;
13651;SDS011;6899;51.546;6.912;2023-04-01T07:46:24;16.23;;;11.43;;
13651;SDS011;6899;51.546;6.912;2023-04-01T07:49:01;16.15;;;11.45;;
13651;SDS011;6899;51.546;6.912;2023-04-01T07:51:32;14.57;;;11.10;;
13651;SDS011;6899;51.546;6.912;2023-04-01T07:54:08;17.50;;;12.18;;
13651;SDS011;6899;51.546;6.912;2023-04-01T07:56:45;18.13;;;12.88;;
13651;SDS011;6899;51.546;6.912;2023-04-01T07:59:19;21.63;;;13.60;;
13651;SDS011;6899;51.546;6.912;2023-04-01T08:01:49;23.58;;;15.45;;
13651;SDS011;6899;51.546;6.912;2023-04-01T08:04:34;22.98;;;15.35;;
13651;SDS011;6899;51.546;6.912;2023-04-01T08:07:15;22.27;;;14.80;;
13651;SDS011;6899;51.546;6.912;2023-04-01T08:09:48;23.35;;;15.90;;
13651;SDS011;6899;51.546;6.912;2023-04-01T08:12:24;27.85;;;17.20;;
13651;SDS011;6899;51.546;6.912;2023-04-01T08:15:00;22.60;;;15.00;;
13651;SDS011;6899;51.546;6.912;2023-04-01T08:17:36;23.10;;;15.23;;
13651;SDS011;6899;51.546;6.912;2023-04-01T08:20:14;25.20;;;15.80;;
13651;SDS011;6899;51.546;6.912;2023-04-01T08:22:53;29.60;;;16.27;;
13651;SDS011;6899;51.546;6.912;2023-04-01T08:25:27;29.08;;;17.35;;
13651;SDS011;6899;51.546;6.912;2023-04-01T08:27:59;25.25;;;15.75;;
13651;SDS011;6899;51.546;6.912;2023-04-01T08:30:33;26.00;;;16.75;;
13651;SDS011;6899;51.546;6.912;2023-04-01T08:33:09;27.70;;;17.52;;
13651;SDS011;6899;51.546;6.912;2023-04-01T08:35:45;26.58;;;15.43;;
13651;SDS011;6899;51.546;6.912;2023-04-01T08:38:17;24.65;;;15.98;;
13651;SDS011;6899;51.546;6.912;2023-04-01T09:40:48;17.40;;;12.13;;
13651;SDS011;6899;51.546;6.912;2023-04-01T09:43:22;16.65;;;11.57;;
13651;SDS011;6899;51.546;6.912;2023-04-01T09:46:11;18.40;;;12.95;;
13651;SDS011;6899;51.546;6.912;2023-04-01T09:48:51;19.35;;;12.43;;
13651;SDS011;6899;51.546;6.912;2023-04-01T09:51:40;20.10;;;12.30;;
13651;SDS011;6899;51.546;6.912;2023-04-01T09:54:20;22.52;;;14.75;;
13651;SDS011;6899;51.546;6.912;2023-04-01T09:57:13;21.33;;;15.35;;
13651;SDS011;6899;51.546;6.912;2023-04-01T10:00:17;19.92;;;15.05;;
13651;SDS011;6899;51.546;6.912;2023-04-01T10:06:12;16.95;;;11.20;;
13651;SDS011;6899;51.546;6.912;2023-04-01T10:18:21;11.82;;;7.65;;
13651;SDS011;6899;51.546;6.912;2023-04-01T10:21:16;13.32;;;8.80;;
13651;SDS011;6899;51.546;6.912;2023-04-01T10:27:27;15.48;;;9.75;;
13651;SDS011;6899;51.546;6.912;2023-04-01T10:30:28;15.73;;;10.35;;
13651;SDS011;6899;51.546;6.912;2023-04-01T15:52:41;12.85;;;9.43;;
13651;SDS011;6899;51.546;6.912;2023-04-01T15:55:20;12.00;;;9.32;;
13651;SDS011;6899;51.546;6.912;2023-04-01T15:57:56;11.18;;;7.88;;
13651;SDS011;6899;51.546;6.912;2023-04-01T16:00:44;12.35;;;8.38;;
13651;SDS011;6899;51.546;6.912;2023-04-01T16:03:19;11.32;;;8.40;;
13651;SDS011;6899;51.546;6.912;2023-04-01T16:05:56;14.38;;;8.57;;
13651;SDS011;6899;51.546;6.912;2023-04-01T16:08:44;13.30;;;7.90;;
13651;SDS011;6899;51.546;6.912;2023-04-01T16:11:25;11.32;;;7.50;;
13651;SDS011;6899;51.546;6.912;2023-04-01T16:14:07;10.93;;;7.75;;
13651;SDS011;6899;51.546;6.912;2023-04-01T16:16:47;11.57;;;7.55;;
13651;SDS011;6899;51.546;6.912;2023-04-01T16:19:29;14.98;;;8.55;;
13651;SDS011;6899;51.546;6.912;2023-04-01T16:22:04;12.48;;;8.65;;
13651;SDS011;6899;51.546;6.912;2023-04-01T16:24:38;12.18;;;8.70;;
13651;SDS011;6899;51.546;6.912;2023-04-01T16:27:10;12.18;;;8.25;;
13651;SDS011;6899;51.546;6.912;2023-04-01T16:29:43;11.48;;;8.30;;
13651;SDS011;6899;51.546;6.912;2023-04-01T16:32:16;12.75;;;8.63;;
13651;SDS011;6899;51.546;6.912;2023-04-01T16:34:56;11.88;;;9.25;;
13651;SDS011;6899;51.546;6.912;2023-04-01T16:37:48;12.27;;;9.32;;
13651;SDS011;6899;51.546;6.912;2023-04-01T16:40:23;11.57;;;8.98;;
13651;SDS011;6899;51.546;6.912;2023-04-01T16:43:04;12.23;;;9.30;;
13651;SDS011;6899;51.546;6.912;2023-04-01T16:45:38;15.52;;;8.88;;
13651;SDS011;6899;51.546;6.912;2023-04-01T16:48:11;12.88;;;8.73;;
13651;SDS011;6899;51.546;6.912;2023-04-01T16:50:42;14.32;;;10.18;;
13651;SDS011;6899;51.546;6.912;2023-04-01T16:53:16;14.88;;;9.82;;
13651;SDS011;6899;51.546;6.912;2023-04-01T16:55:50;18.67;;;11.45;;
13651;SDS011;6899;51.546;6.912;2023-04-01T16:58:26;20.17;;;11.40;;
13651;SDS011;6899;51.546;6.912;2023-04-01T17:01:00;14.93;;;10.88;;
13651;SDS011;6899;51.546;6.912;2023-04-01T17:03:32;17.67;;;11.82;;
13651;SDS011;6899;51.546;6.912;2023-04-01T17:06:07;20.70;;;12.70;;
13651;SDS011;6899;51.546;6.912;2023-04-01T17:08:50;23.42;;;15.25;;
13651;SDS011;6899;51.546;6.912;2023-04-01T17:11:29;21.30;;;13.63;;
13651;SDS011;6899;51.546;6.912;2023-04-01T17:14:01;19.88;;;12.65;;
13651;SDS011;6899;51.546;6.912;2023-04-01T17:19:42;19.45;;;13.40;;
13651;SDS011;6899;51.546;6.912;2023-04-01T17:22:23;23.88;;;15.60;;
13651;SDS011;6899;51.546;6.912;2023-04-01T17:25:02;22.80;;;15.02;;
13651;SDS011;6899;51.546;6.912;2023-04-01T17:30:26;22.90;;;13.93;;
13651;SDS011;6899;51.546;6.912;2023-04-01T17:36:06;24.75;;;15.27;;
13651;SDS011;6899;51.546;6.912;2023-04-01T17:38:47;39.20;;;25.58;;
13651;SDS011;6899;51.546;6.912;2023-04-01T17:44:23;24.17;;;14.95;;
13651;SDS011;6899;51.546;6.912;2023-04-01T17:50:01;23.90;;;16.13;;
13651;SDS011;6899;51.546;6.912;2023-04-01T17:52:55;23.40;;;16.52;;
13651;SDS011;6899;51.546;6.912;2023-04-01T17:55:46;25.48;;;16.35;;
13651;SDS011;6899;51.546;6.912;2023-04-01T17:58:21;24.02;;;15.90;;
13651;SDS011;6899;51.546;6.912;2023-04-01T18:01:08;24.00;;;15.52;;
13651;SDS011;6899;51.546;6.912;2023-04-01T18:03:52;22.98;;;16.15;;
13651;SDS011;6899;51.546;6.912;2023-04-01T18:06:33;23.83;;;15.73;;
13651;SDS011;6899;51.546;6.912;2023-04-01T18:09:05;20.35;;;14.25;;
13651;SDS011;6899;51.546;6.912;2023-04-01T18:11:45;17.55;;;13.45;;
13651;SDS011;6899;51.546;6.912;2023-04-01T18:14:26;20.02;;;13.38;;
13651;SDS011;6899;51.546;6.912;2023-04-01T18:17:11;21.20;;;14.18;;
13651;SDS011;6899;51.546;6.912;2023-04-01T18:19:47;20.67;;;13.80;;
13651;SDS011;6899;51.546;6.912;2023-04-01T18:22:28;21.45;;;14.15;;
13651;SDS011;6899;51.546;6.912;2023-04-01T18:25:05;22.17;;;15.48;;
13651;SDS011;6899;51.546;6.912;2023-04-01T18:27:45;20.83;;;15.18;;
13651;SDS011;6899;51.546;6.912;2023-04-01T18:30:20;18.67;;;13.35;;
13651;SDS011;6899;51.546;6.912;2023-04-01T18:32:55;16.75;;;12.93;;
13651;SDS011;6899;51.546;6.912;2023-04-01T18:35:27;22.42;;;16.98;;
13651;SDS011;6899;51.546;6.912;2023-04-01T18:38:03;25.10;;;16.90;;
13651;SDS011;6899;51.546;6.912;2023-04-01T18:40:37;28.58;;;22.63;;
13651;SDS011;6899;51.546;6.912;2023-04-01T18:43:11;22.38;;;16.65;;
13651;SDS011;6899;51.546;6.912;2023-04-01T18:45:45;23.77;;;12.63;;
13651;SDS011;6899;51.546;6.912;2023-04-01T18:48:26;14.18;;;10.90;;
13651;SDS011;6899;51.546;6.912;2023-04-01T18:51:09;9.60;;;8.32;;
13651;SDS011;6899;51.546;6.912;2023-04-01T18:53:39;9.80;;;8.38;;
13651;SDS011;6899;51.546;6.912;2023-04-01T18:56:12;12.07;;;8.75;;
13651;SDS011;6899;51.546;6.912;2023-04-01T18:58:50;9.50;;;7.90;;
13651;SDS011;6899;51.546;6.912;2023-04-01T19:01:23;7.72;;;6.93;;
13651;SDS011;6899;51.546;6.912;2023-04-01T19:03:57;8.48;;;7.25;;
13651;SDS011;6899;51.546;6.912;2023-04-01T19:06:32;8.48;;;7.45;;
13651;SDS011;6899;51.546;6.912;2023-04-01T19:09:18;8.05;;;7.10;;
13651;SDS011;6899;51.546;6.912;2023-04-01T19:11:54;12.13;;;7.32;;
13651;SDS011;6899;51.546;6.912;2023-04-01T19:14:52;8.32;;;7.38;;
13651;SDS011;6899;51.546;6.912;2023-04-01T19:17:29;9.80;;;8.77;;
13651;SDS011;6899;51.546;6.912;2023-04-01T19:20:08;7.38;;;6.60;;
13651;SDS011;6899;51.546;6.912;2023-04-01T19:22:51;7.47;;;6.57;;
13651;SDS011;6899;51.546;6.912;2023-04-01T19:25:35;9.13;;;7.68;;
13651;SDS011;6899;51.546;6.912;2023-04-01T19:28:20;9.13;;;7.47;;
13651;SDS011;6899;51.546;6.912;2023-04-01T19:30:54;8.93;;;7.95;;
13651;SDS011;6899;51.546;6.912;2023-04-01T19:33:29;9.02;;;7.63;;
13651;SDS011;6899;51.546;6.912;2023-04-01T19:36:11;8.55;;;7.65;;
13651;SDS011;6899;51.546;6.912;2023-04-01T19:38:55;7.82;;;7.03;;
13651;SDS011;6899;51.546;6.912;2023-04-01T19:41:36;9.10;;;7.68;;
13651;SDS011;6899;51.546;6.912;2023-04-01T19:44:13;8.95;;;7.78;;
13651;SDS011;6899;51.546;6.912;2023-04-01T19:46:48;8.45;;;7.55;;
13651;SDS011;6899;51.546;6.912;2023-04-01T19:49:26;9.15;;;7.63;;
13651;SDS011;6899;51.546;6.912;2023-04-01T19:52:08;8.65;;;7.60;;
13651;SDS011;6899;51.546;6.912;2023-04-01T19:54:43;10.75;;;9.00;;
13651;SDS011;6899;51.546;6.912;2023-04-01T19:57:20;9.45;;;8.10;;
13651;SDS011;6899;51.546;6.912;2023-04-01T19:59:55;13.07;;;9.32;;
13651;SDS011;6899;51.546;6.912;2023-04-01T20:02:39;9.63;;;8.63;;
13651;SDS011;6899;51.546;6.912;2023-04-01T20:05:26;11.00;;;9.15;;
13651;SDS011;6899;51.546;6.912;2023-04-01T20:08:06;11.60;;;9.55;;
13651;SDS011;6899;51.546;6.912;2023-04-01T20:10:39;10.80;;;8.80;;
13651;SDS011;6899;51.546;6.912;2023-04-01T20:13:13;12.02;;;9.80;;
13651;SDS011;6899;51.546;6.912;2023-04-01T20:15:57;11.90;;;10.10;;
13651;SDS011;6899;51.546;6.912;2023-04-01T20:18:33;9.93;;;8.70;;
13651;SDS011;6899;51.546;6.912;2023-04-01T20:21:09;9.25;;;7.72;;
13651;SDS011;6899;51.546;6.912;2023-04-01T20:23:48;11.75;;;9.05;;
13651;SDS011;6899;51.546;6.912;2023-04-01T20:26:21;10.13;;;9.02;;
13651;SDS011;6899;51.546;6.912;2023-04-01T20:29:02;9.85;;;8.85;;
13651;SDS011;6899;51.546;6.912;2023-04-01T20:31:39;10.32;;;7.80;;
13651;SDS011;6899;51.546;6.912;2023-04-01T20:34:11;9.48;;;7.80;;
13651;SDS011;6899;51.546;6.912;2023-04-01T20:36:51;9.88;;;7.65;;
13651;SDS011;6899;51.546;6.912;2023-04-01T20:39:41;8.02;;;7.22;;
13651;SDS011;6899;51.546;6.912;2023-04-01T20:42:29;8.88;;;7.35;;
13651;SDS011;6899;51.546;6.912;2023-04-01T20:45:17;14.15;;;7.93;;
13651;SDS011;6899;51.546;6.912;2023-04-01T20:47:59;8.30;;;6.88;;
13651;SDS011;6899;51.546;6.912;2023-04-01T20:50:38;8.93;;;7.82;;
13651;SDS011;6899;51.546;6.912;2023-04-01T20:53:11;9.73;;;8.25;;
13651;SDS011;6899;51.546;6.912;2023-04-01T20:58:45;8.50;;;7.25;;
13651;SDS011;6899;51.546;6.912;2023-04-01T21:01:24;9.07;;;6.57;;
13651;SDS011;6899;51.546;6.912;2023-04-01T21:07:02;8.50;;;7.03;;
13651;SDS011;6899;51.546;6.912;2023-04-01T21:09:45;8.63;;;6.70;;
13651;SDS011;6899;51.546;6.912;2023-04-01T21:12:33;7.50;;;6.35;;
13651;SDS011;6899;51.546;6.912;2023-04-01T21:15:22;8.80;;;7.68;;
13651;SDS011;6899;51.546;6.912;2023-04-01T21:18:04;8.57;;;7.05;;
13651;SDS011;6899;51.546;6.912;2023-04-01T21:20:49;6.93;;;5.60;;
13651;SDS011;6899;51.546;6.912;2023-04-01T21:23:35;6.20;;;5.57;;
13651;SDS011;6899;51.546;6.912;2023-04-01T21:26:19;6.68;;;5.80;;
13651;SDS011;6899;51.546;6.912;2023-04-01T21:29:08;7.78;;;6.10;;
13651;SDS011;6899;51.546;6.912;2023-04-01T21:31:51;10.27;;;6.93;;
13651;SDS011;6899;51.546;6.912;2023-04-01T21:37:49;13.25;;;8.48;;
13651;SDS011;6899;51.546;6.912;2023-04-01T21:40:37;10.52;;;9.13;;
13651;SDS011;6899;51.546;6.912;2023-04-01T21:43:19;10.43;;;8.63;;
13651;SDS011;6899;51.546;6.912;2023-04-01T21:46:15;9.98;;;7.90;;
13651;SDS011;6899;51.546;6.912;2023-04-01T21:51:56;12.40;;;9.40;;
13651;SDS011;6899;51.546;6.912;2023-04-01T21:54:56;11.90;;;9.20;;
13651;SDS011;6899;51.546;6.912;2023-04-01T22:01:15;11.18;;;9.35;;
13651;SDS011;6899;51.546;6.912;2023-04-01T22:04:08;11.35;;;9.70;;
13651;SDS011;6899;51.546;6.912;2023-04-01T22:06:52;10.88;;;9.10;;
13651;SDS011;6899;51.546;6.912;2023-04-01T22:09:24;8.13;;;7.22;;
13651;SDS011;6899;51.546;6.912;2023-04-01T22:11:57;9.60;;;7.82;;
13651;SDS011;6899;51.546;6.912;2023-04-01T22:14:42;9.48;;;7.32;;
13651;SDS011;6899;51.546;6.912;2023-04-01T22:17:21;9.45;;;6.75;;
13651;SDS011;6899;51.546;6.912;2023-04-01T22:19:55;7.82;;;6.90;;
13651;SDS011;6899;51.546;6.912;2023-04-01T22:22:30;7.47;;;6.55;;
13651;SDS011;6899;51.546;6.912;2023-04-01T22:25:05;8.85;;;7.13;;
13651;SDS011;6899;51.546;6.912;2023-04-01T22:27:38;8.68;;;7.28;;
13651;SDS011;6899;51.546;6.912;2023-04-01T22:30:13;8.63;;;7.18;;
13651;SDS011;6899;51.546;6.912;2023-04-01T22:32:48;8.85;;;6.97;;
13651;SDS011;6899;51.546;6.912;2023-04-01T22:35:29;9.60;;;7.57;;
13651;SDS011;6899;51.546;6.912;2023-04-01T22:38:16;8.43;;;6.93;;
13651;SDS011;6899;51.546;6.912;2023-04-01T22:40:53;9.18;;;7.38;;
13651;SDS011;6899;51.546;6.912;2023-04-01T22:43:29;9.18;;;7.35;;
13651;SDS011;6899;51.546;6.912;2023-04-01T22:48:57;9.63;;;7.82;;
13651;SDS011;6899;51.546;6.912;2023-04-01T22:51:38;9.95;;;8.55;;
13651;SDS011;6899;51.546;6.912;2023-04-01T22:54:13;11.48;;;9.57;;
13651;SDS011;6899;51.546;6.912;2023-04-01T22:56:46;12.52;;;9.80;;
13651;SDS011;6899;51.546;6.912;2023-04-01T22:59:17;10.43;;;8.93;;
13651;SDS011;6899;51.546;6.912;2023-04-01T23:01:50;9.18;;;8.18;;
13651;SDS011;6899;51.546;6.912;2023-04-01T23:04:23;10.05;;;8.68;;
13651;SDS011;6899;51.546;6.912;2023-04-01T23:07:13;9.13;;;7.97;;
13651;SDS011;6899;51.546;6.912;2023-04-01T23:09:53;10.52;;;8.70;;
13651;SDS011;6899;51.546;6.912;2023-04-01T23:12:23;11.23;;;8.32;;
13651;SDS011;6899;51.546;6.912;2023-04-01T23:14:52;10.32;;;8.65;;